createdAt,value
2018-02-10T00:00:06.854Z,5.97
2018-02-10T00:02:00.177Z,5.64
2018-02-10T00:03:00.158Z,5.61
2018-02-10T00:04:53.613Z,5.87
2018-02-10T00:05:53.468Z,5.86
2018-02-10T00:07:46.790Z,5.90
2018-02-10T00:08:46.749Z,5.94
2018-02-10T00:10:40.090Z,5.76
2018-02-10T00:11:40.051Z,5.69
2018-02-10T00:13:33.369Z,5.94
2018-02-10T00:14:33.343Z,5.97
2018-02-10T00:16:26.690Z,5.98
2018-02-10T00:17:26.639Z,6.01
2018-02-10T00:19:19.966Z,5.94
2018-02-10T00:20:19.944Z,5.90
2018-02-10T00:22:13.280Z,5.91
2018-02-10T00:23:13.241Z,5.75
2018-02-10T00:25:06.563Z,5.93
2018-02-10T00:26:06.535Z,5.86
2018-02-10T00:27:59.879Z,5.86
2018-02-10T00:28:59.841Z,5.86
2018-02-10T00:30:53.167Z,5.93
2018-02-10T00:31:53.139Z,6.04
2018-02-10T00:33:46.473Z,6.14
2018-02-10T00:34:46.432Z,5.99
2018-02-10T00:36:39.776Z,5.65
2018-02-10T00:37:39.747Z,5.35
2018-02-10T00:39:33.090Z,5.66
2018-02-10T00:40:33.047Z,5.66
2018-02-10T00:42:26.368Z,5.72
2018-02-10T00:43:26.349Z,5.47
2018-02-10T00:45:19.723Z,5.33
2018-02-10T00:46:19.641Z,5.30
2018-02-10T00:48:12.973Z,5.08
2018-02-10T00:49:12.937Z,5.20
2018-02-10T00:51:06.273Z,5.44
2018-02-10T00:52:06.231Z,5.25
2018-02-10T00:53:59.580Z,5.46
2018-02-10T00:54:59.553Z,5.56
2018-02-10T00:56:52.885Z,5.50
2018-02-10T00:57:52.864Z,5.51
2018-02-10T00:59:46.176Z,5.69
2018-02-10T01:00:46.134Z,5.61
2018-02-10T01:02:39.465Z,5.61
2018-02-10T01:03:39.426Z,5.65
2018-02-10T01:05:32.749Z,5.69
2018-02-10T01:06:32.726Z,5.83
2018-02-10T01:08:25.572Z,5.71
2018-02-10T01:09:25.524Z,5.66
2018-02-10T01:11:18.855Z,5.72
2018-02-10T01:12:18.825Z,5.76
2018-02-10T01:14:12.167Z,5.79
2018-02-10T01:15:12.129Z,5.82
2018-02-10T01:17:05.451Z,5.76
2018-02-10T01:18:05.426Z,5.72
2018-02-10T01:19:58.753Z,5.65
2018-02-10T01:20:58.718Z,5.75
2018-02-10T01:22:52.043Z,5.71
2018-02-10T01:23:52.021Z,5.83
2018-02-10T01:25:45.356Z,5.75
2018-02-10T01:26:45.310Z,5.57
2018-02-10T01:28:38.644Z,5.56
2018-02-10T01:29:38.616Z,5.64
2018-02-10T01:31:31.968Z,5.69
2018-02-10T01:32:31.936Z,5.75
2018-02-10T01:34:24.773Z,5.82
2018-02-10T01:35:24.734Z,5.89
2018-02-10T01:37:18.185Z,5.83
2018-02-10T01:38:18.063Z,5.90
2018-02-10T01:40:11.407Z,5.93
2018-02-10T01:41:11.363Z,5.87
2018-02-10T01:43:04.712Z,5.94
2018-02-10T01:44:04.678Z,6.02
2018-02-10T01:45:57.998Z,5.97
2018-02-10T01:46:57.969Z,6.01
2018-02-10T01:48:51.306Z,6.01
2018-02-10T01:49:51.262Z,6.01
2018-02-10T01:51:44.591Z,5.99
2018-02-10T01:52:44.567Z,6.02
2018-02-10T01:54:37.911Z,6.01
2018-02-10T01:55:37.869Z,5.97
2018-02-10T01:57:31.190Z,5.68
2018-02-10T01:58:31.163Z,5.80
2018-02-10T02:00:24.511Z,5.68
2018-02-10T02:01:24.466Z,5.65
2018-02-10T02:03:17.793Z,5.56
2018-02-10T02:04:17.762Z,5.18
2018-02-10T02:06:11.095Z,5.69
2018-02-10T02:07:11.064Z,5.72
2018-02-10T02:09:04.381Z,5.50
2018-02-10T02:10:04.347Z,5.76
2018-02-10T02:11:57.696Z,5.32
2018-02-10T02:12:57.639Z,5.28
2018-02-10T02:14:50.961Z,5.14
2018-02-10T02:15:50.932Z,5.00
2018-02-10T02:17:44.271Z,4.92
2018-02-10T02:18:44.234Z,5.02
2018-02-10T02:20:37.561Z,5.15
2018-02-10T02:21:37.533Z,5.07
2018-02-10T02:23:30.874Z,4.89
2018-02-10T02:24:30.826Z,5.25
2018-02-10T02:26:24.160Z,4.89
2018-02-10T02:27:24.119Z,4.84
2018-02-10T02:29:17.451Z,4.78
2018-02-10T02:30:17.414Z,4.75
2018-02-10T02:32:10.733Z,4.89
2018-02-10T02:33:10.705Z,4.73
2018-02-10T02:35:04.050Z,4.73
2018-02-10T02:36:04.013Z,4.73
2018-02-10T02:37:56.839Z,5.10
2018-02-10T02:38:56.816Z,5.10
2018-02-10T02:40:50.155Z,4.77
2018-02-10T02:41:50.130Z,4.89
2018-02-10T02:43:43.438Z,4.74
2018-02-10T02:44:43.414Z,4.70
2018-02-10T02:46:36.756Z,4.71
2018-02-10T02:47:36.708Z,4.80
2018-02-10T02:49:30.043Z,4.74
2018-02-10T02:50:30.015Z,4.87
2018-02-10T02:52:23.362Z,4.97
2018-02-10T02:53:23.324Z,4.89
2018-02-10T02:55:16.645Z,4.80
2018-02-10T02:56:16.621Z,4.90
2018-02-10T02:58:09.464Z,4.84
2018-02-10T02:59:09.428Z,4.73
2018-02-10T03:01:02.747Z,4.80
2018-02-10T03:02:02.721Z,4.73
2018-02-10T03:03:56.050Z,4.74
2018-02-10T03:04:56.013Z,4.80
2018-02-10T03:06:49.356Z,4.94
2018-02-10T03:07:49.345Z,5.21
2018-02-10T03:09:42.171Z,5.00
2018-02-10T03:10:42.131Z,4.71
2018-02-10T03:12:35.462Z,4.78
2018-02-10T03:13:35.584Z,4.74
2018-02-10T03:15:28.782Z,4.97
2018-02-10T03:16:28.741Z,4.90
2018-02-10T03:18:22.077Z,4.82
2018-02-10T03:19:22.039Z,4.68
2018-02-10T03:21:15.380Z,4.92
2018-02-10T03:22:15.333Z,4.80
2018-02-10T03:24:08.663Z,5.15
2018-02-10T03:25:08.630Z,5.26
2018-02-10T03:27:01.978Z,5.48
2018-02-10T03:28:01.937Z,5.50
2018-02-10T03:29:55.269Z,5.56
2018-02-10T03:30:55.239Z,5.66
2018-02-10T03:32:48.593Z,5.83
2018-02-10T03:33:48.545Z,5.76
2018-02-10T03:35:41.864Z,5.84
2018-02-10T03:36:41.834Z,5.80
2018-02-10T03:38:35.170Z,5.76
2018-02-10T03:39:35.131Z,5.72
2018-02-10T03:41:28.463Z,5.87
2018-02-10T03:42:28.427Z,5.91
2018-02-10T03:44:21.760Z,5.91
2018-02-10T03:45:21.723Z,5.99
2018-02-10T03:47:15.044Z,5.91
2018-02-10T03:48:15.012Z,5.98
2018-02-10T03:50:08.358Z,5.93
2018-02-10T03:51:08.317Z,5.94
2018-02-10T03:53:01.640Z,5.91
2018-02-10T03:54:01.620Z,5.93
2018-02-10T03:55:54.950Z,5.98
2018-02-10T03:56:54.907Z,6.01
2018-02-10T03:58:48.241Z,5.99
2018-02-10T03:59:48.214Z,5.86
2018-02-10T04:01:41.547Z,5.98
2018-02-10T04:02:41.508Z,5.97
2018-02-10T04:04:34.826Z,5.90
2018-02-10T04:05:34.803Z,5.89
2018-02-10T04:07:28.150Z,5.91
2018-02-10T04:08:28.108Z,6.09
2018-02-10T04:10:21.439Z,6.02
2018-02-10T04:11:21.406Z,5.91
2018-02-10T04:13:15.352Z,5.61
2018-02-10T04:14:14.713Z,5.73
2018-02-10T04:16:08.137Z,5.43
2018-02-10T04:17:08.016Z,5.48
2018-02-10T04:19:01.345Z,4.96
2018-02-10T04:20:01.314Z,5.07
2018-02-10T04:21:54.618Z,5.32
2018-02-10T04:22:54.599Z,5.11
2018-02-10T04:24:47.934Z,5.18
2018-02-10T04:25:47.893Z,4.90
2018-02-10T04:27:41.214Z,4.89
2018-02-10T04:28:41.188Z,4.67
2018-02-10T04:30:34.542Z,4.73
2018-02-10T04:31:34.497Z,4.71
2018-02-10T04:33:27.821Z,4.63
2018-02-10T04:34:27.792Z,4.71
2018-02-10T04:36:21.148Z,4.67
2018-02-10T04:37:21.095Z,4.45
2018-02-10T04:39:14.418Z,4.48
2018-02-10T04:40:14.395Z,4.58
2018-02-10T04:42:07.746Z,4.45
2018-02-10T04:43:07.697Z,4.38
2018-02-10T04:45:01.113Z,4.53
2018-02-10T04:46:00.987Z,4.48
2018-02-10T04:47:54.344Z,4.59
2018-02-10T04:48:54.295Z,4.66
2018-02-10T04:50:47.617Z,4.92
2018-02-10T04:51:47.593Z,4.80
2018-02-10T04:53:40.947Z,4.37
2018-02-10T04:54:40.899Z,4.50
2018-02-10T04:56:34.215Z,4.31
2018-02-10T04:57:34.194Z,4.16
2018-02-10T04:59:27.531Z,4.12
2018-02-10T05:00:27.484Z,4.40
2018-02-10T05:02:20.820Z,4.17
2018-02-10T05:03:20.807Z,4.04
2018-02-10T05:05:14.141Z,4.22
2018-02-10T05:06:14.091Z,4.08
2018-02-10T05:08:07.418Z,4.37
2018-02-10T05:09:07.393Z,4.22
2018-02-10T05:11:00.739Z,4.20
2018-02-10T05:12:00.693Z,4.14
2018-02-10T05:13:54.015Z,4.17
2018-02-10T05:14:53.999Z,4.23
2018-02-10T05:16:47.329Z,4.22
2018-02-10T05:17:47.293Z,4.50
2018-02-10T05:19:40.612Z,4.37
2018-02-10T05:20:40.584Z,4.56
2018-02-10T05:22:33.970Z,4.56
2018-02-10T05:23:33.923Z,4.24
2018-02-10T05:25:27.259Z,4.12
2018-02-10T05:26:27.224Z,3.86
2018-02-10T05:28:20.591Z,3.84
2018-02-10T05:29:20.537Z,3.88
2018-02-10T05:31:13.868Z,3.83
2018-02-10T05:32:13.827Z,3.73
2018-02-10T05:34:07.204Z,4.13
2018-02-10T05:35:07.124Z,3.94
2018-02-10T05:37:00.462Z,3.78
2018-02-10T05:38:00.428Z,3.84
2018-02-10T05:39:53.774Z,4.08
2018-02-10T05:40:53.733Z,4.05
2018-02-10T05:42:47.044Z,3.62
2018-02-10T05:43:47.022Z,3.62
2018-02-10T05:45:40.358Z,3.63
2018-02-10T05:46:40.314Z,3.69
2018-02-10T05:48:33.643Z,3.70
2018-02-10T05:49:33.611Z,3.59
2018-02-10T05:51:26.969Z,3.50
2018-02-10T05:52:26.905Z,3.48
2018-02-10T05:54:20.239Z,3.45
2018-02-10T05:55:20.218Z,3.63
2018-02-10T05:57:13.551Z,3.62
2018-02-10T05:58:13.509Z,3.63
2018-02-10T06:00:06.842Z,3.58
2018-02-10T06:01:06.808Z,3.47
2018-02-10T06:03:00.151Z,3.60
2018-02-10T06:04:00.114Z,3.65
2018-02-10T06:05:53.450Z,3.59
2018-02-10T06:06:53.401Z,3.58
2018-02-10T06:08:46.733Z,3.63
2018-02-10T06:09:46.687Z,3.47
2018-02-10T06:11:40.004Z,3.50
2018-02-10T06:12:39.980Z,3.44
2018-02-10T06:14:33.318Z,3.48
2018-02-10T06:15:33.283Z,3.45
2018-02-10T06:17:26.602Z,3.50
2018-02-10T06:18:26.575Z,3.41
2018-02-10T06:20:20.010Z,3.42
2018-02-10T06:21:19.876Z,3.26
2018-02-10T06:23:13.193Z,3.34
2018-02-10T06:24:13.165Z,3.40
2018-02-10T06:26:06.506Z,3.50
2018-02-10T06:27:06.461Z,3.42
2018-02-10T06:28:59.795Z,3.53
2018-02-10T06:29:59.764Z,3.56
2018-02-10T06:31:53.094Z,3.42
2018-02-10T06:32:53.056Z,3.41
2018-02-10T06:34:46.378Z,3.60
2018-02-10T06:35:46.350Z,3.69
2018-02-10T06:37:39.682Z,3.60
2018-02-10T06:38:39.643Z,3.84
2018-02-10T06:40:32.469Z,3.86
2018-02-10T06:41:32.448Z,3.81
2018-02-10T06:43:25.871Z,3.73
2018-02-10T06:44:25.745Z,3.70
2018-02-10T06:46:19.069Z,3.62
2018-02-10T06:47:19.046Z,3.59
2018-02-10T06:49:11.879Z,3.55
2018-02-10T06:50:11.838Z,3.66
2018-02-10T06:52:05.263Z,3.58
2018-02-10T06:53:05.139Z,3.66
2018-02-10T06:54:58.487Z,3.65
2018-02-10T06:55:58.436Z,3.60
2018-02-10T06:57:51.758Z,3.65
2018-02-10T06:58:51.726Z,3.60
2018-02-10T07:00:45.079Z,3.77
2018-02-10T07:01:45.031Z,3.86
2018-02-10T07:03:38.351Z,3.73
2018-02-10T07:04:38.321Z,3.76
2018-02-10T07:06:31.666Z,3.87
2018-02-10T07:07:31.624Z,3.86
2018-02-10T07:09:24.935Z,3.68
2018-02-10T07:10:24.910Z,3.77
2018-02-10T07:12:18.252Z,3.55
2018-02-10T07:13:18.209Z,3.60
2018-02-10T07:15:11.538Z,3.41
2018-02-10T07:16:11.515Z,3.36
2018-02-10T07:18:04.847Z,3.32
2018-02-10T07:19:04.835Z,3.36
2018-02-10T07:20:58.122Z,3.44
2018-02-10T07:21:58.095Z,3.25
2018-02-10T07:23:51.450Z,3.66
2018-02-10T07:24:51.389Z,3.66
2018-02-10T07:26:44.718Z,3.51
2018-02-10T07:27:44.698Z,3.47
2018-02-10T07:29:38.058Z,3.63
2018-02-10T07:30:37.996Z,3.73
2018-02-10T07:32:31.813Z,3.40
2018-02-10T07:33:31.297Z,3.41
2018-02-10T07:35:24.635Z,3.42
2018-02-10T07:36:24.602Z,3.50
2018-02-10T07:38:17.422Z,3.40
2018-02-10T07:39:17.385Z,3.59
2018-02-10T07:41:10.719Z,3.63
2018-02-10T07:42:10.683Z,3.60
2018-02-10T07:44:04.019Z,3.62
2018-02-10T07:45:04.003Z,3.70
2018-02-10T07:46:57.341Z,3.80
2018-02-10T07:47:57.301Z,3.77
2018-02-10T07:49:50.630Z,3.88
2018-02-10T07:50:50.607Z,3.78
2018-02-10T07:52:43.943Z,3.83
2018-02-10T07:53:43.905Z,3.84
2018-02-10T07:55:37.219Z,3.78
2018-02-10T07:56:38.147Z,4.02
2018-02-10T07:58:30.526Z,3.78
2018-02-10T07:59:30.492Z,3.77
2018-02-10T08:01:23.803Z,3.62
2018-02-10T08:02:23.775Z,3.88
2018-02-10T08:04:17.112Z,3.59
2018-02-10T08:05:17.070Z,3.58
2018-02-10T08:07:10.491Z,3.53
2018-02-10T08:08:10.375Z,3.78
2018-02-10T08:10:03.700Z,3.59
2018-02-10T08:11:03.659Z,3.86
2018-02-10T08:12:57.027Z,3.78
2018-02-10T08:13:57.003Z,3.80
2018-02-10T08:15:50.330Z,3.80
2018-02-10T08:16:50.289Z,3.81
2018-02-10T08:18:43.612Z,3.62
2018-02-10T08:19:43.590Z,3.59
2018-02-10T08:21:36.928Z,3.60
2018-02-10T08:22:36.888Z,3.56
2018-02-10T08:24:30.203Z,3.77
2018-02-10T08:25:30.185Z,3.63
2018-02-10T08:27:23.535Z,3.84
2018-02-10T08:28:23.478Z,3.63
2018-02-10T08:30:16.796Z,3.60
2018-02-10T08:31:16.767Z,3.42
2018-02-10T08:33:10.098Z,3.47
2018-02-10T08:34:10.066Z,3.56
2018-02-10T08:36:03.435Z,3.76
2018-02-10T08:37:03.365Z,3.91
2018-02-10T08:38:56.705Z,3.56
2018-02-10T08:39:56.661Z,3.55
2018-02-10T08:41:49.988Z,3.51
2018-02-10T08:42:49.946Z,3.55
2018-02-10T08:44:43.278Z,3.58
2018-02-10T08:45:43.252Z,3.56
2018-02-10T08:47:36.561Z,3.56
2018-02-10T08:48:36.529Z,3.47
2018-02-10T08:50:29.883Z,3.48
2018-02-10T08:51:29.844Z,3.45
2018-02-10T08:53:23.143Z,3.42
2018-02-10T08:54:23.114Z,3.40
2018-02-10T08:56:16.456Z,3.29
2018-02-10T08:57:16.413Z,3.44
2018-02-10T08:59:09.736Z,3.65
2018-02-10T09:00:09.706Z,3.83
2018-02-10T09:02:03.035Z,3.58
2018-02-10T09:03:02.997Z,3.48
2018-02-10T09:04:56.327Z,3.37
2018-02-10T09:05:56.306Z,3.53
2018-02-10T09:07:49.633Z,3.36
2018-02-10T09:08:49.588Z,3.53
2018-02-10T09:10:42.411Z,3.51
2018-02-10T09:11:42.383Z,3.41
2018-02-10T09:13:35.719Z,3.48
2018-02-10T09:14:35.680Z,3.47
2018-02-10T09:16:28.998Z,3.37
2018-02-10T09:17:28.966Z,3.42
2018-02-10T09:19:21.800Z,3.42
2018-02-10T09:20:21.761Z,3.41
2018-02-10T09:22:14.581Z,3.42
2018-02-10T09:23:14.554Z,3.41
2018-02-10T09:25:07.882Z,3.41
2018-02-10T09:26:07.838Z,3.47
2018-02-10T09:28:00.661Z,3.37
2018-02-10T09:29:00.634Z,3.51
2018-02-10T09:30:53.467Z,3.59
2018-02-10T09:31:53.426Z,3.76
2018-02-10T09:33:46.247Z,3.60
2018-02-10T09:34:46.217Z,3.51
2018-02-10T09:36:39.056Z,3.48
2018-02-10T09:37:39.013Z,3.48
2018-02-10T09:39:31.831Z,3.51
2018-02-10T09:40:31.806Z,3.36
2018-02-10T09:42:24.640Z,3.68
2018-02-10T09:43:24.598Z,3.58
2018-02-10T09:45:17.458Z,3.59
2018-02-10T09:46:17.392Z,3.65
2018-02-10T09:48:10.753Z,3.63
2018-02-10T09:49:10.680Z,3.53
2018-02-10T09:51:03.498Z,3.37
2018-02-10T09:52:03.472Z,3.48
2018-02-10T09:53:56.800Z,3.40
2018-02-10T09:54:56.758Z,3.41
2018-02-10T09:56:49.632Z,3.53
2018-02-10T09:57:49.547Z,3.68
2018-02-10T09:59:42.382Z,3.74
2018-02-10T10:00:42.346Z,3.81
2018-02-10T10:02:35.655Z,3.86
2018-02-10T10:03:35.629Z,3.94
2018-02-10T10:05:28.986Z,3.76
2018-02-10T10:06:28.933Z,3.73
2018-02-10T10:08:22.256Z,3.70
2018-02-10T10:09:22.237Z,3.77
2018-02-10T10:11:15.564Z,3.86
2018-02-10T10:12:15.520Z,3.80
2018-02-10T10:14:08.841Z,3.78
2018-02-10T10:15:08.825Z,3.77
2018-02-10T10:17:02.147Z,3.78
2018-02-10T10:18:02.105Z,3.81
2018-02-10T10:19:55.435Z,3.94
2018-02-10T10:20:55.424Z,3.99
2018-02-10T10:22:48.245Z,4.08
2018-02-10T10:23:48.198Z,4.13
2018-02-10T10:25:41.530Z,4.23
2018-02-10T10:26:41.494Z,4.20
2018-02-10T10:28:34.828Z,4.44
2018-02-10T10:29:34.786Z,4.32
2018-02-10T10:31:27.609Z,4.13
2018-02-10T10:32:27.574Z,4.08
2018-02-10T10:34:20.917Z,3.92
2018-02-10T10:35:20.874Z,4.05
2018-02-10T10:37:14.190Z,4.13
2018-02-10T10:38:14.164Z,4.02
2018-02-10T10:40:07.508Z,3.95
2018-02-10T10:41:07.468Z,3.91
2018-02-10T10:43:00.778Z,4.06
2018-02-10T10:44:00.766Z,4.22
2018-02-10T10:45:54.087Z,4.48
2018-02-10T10:46:54.043Z,4.55
2018-02-10T10:48:47.372Z,4.24
2018-02-10T10:49:47.335Z,4.10
2018-02-10T10:51:40.668Z,4.02
2018-02-10T10:52:40.628Z,4.06
2018-02-10T10:54:33.951Z,4.22
2018-02-10T10:55:33.925Z,4.14
2018-02-10T10:57:27.269Z,4.12
2018-02-10T10:58:27.228Z,4.19
2018-02-10T11:00:20.549Z,4.16
2018-02-10T11:01:20.514Z,4.13
2018-02-10T11:03:13.852Z,4.26
2018-02-10T11:04:13.811Z,4.45
2018-02-10T11:06:07.127Z,4.38
2018-02-10T11:07:07.105Z,4.42
2018-02-10T11:09:00.443Z,4.41
2018-02-10T11:10:00.403Z,4.35
2018-02-10T11:11:53.731Z,4.38
2018-02-10T11:12:53.797Z,4.14
2018-02-10T11:14:47.053Z,4.40
2018-02-10T11:15:46.995Z,4.23
2018-02-10T11:17:40.322Z,4.42
2018-02-10T11:18:40.286Z,4.45
2018-02-10T11:20:33.617Z,4.38
2018-02-10T11:21:33.580Z,4.31
2018-02-10T11:23:26.907Z,4.41
2018-02-10T11:24:26.875Z,4.50
2018-02-10T11:26:20.210Z,4.37
2018-02-10T11:27:20.171Z,4.32
2018-02-10T11:29:13.483Z,4.37
2018-02-10T11:30:13.457Z,4.26
2018-02-10T11:32:06.804Z,4.32
2018-02-10T11:33:06.748Z,4.28
2018-02-10T11:34:59.576Z,4.38
2018-02-10T11:35:59.546Z,4.31
2018-02-10T11:37:52.894Z,4.32
2018-02-10T11:38:52.851Z,4.10
2018-02-10T11:40:46.170Z,4.08
2018-02-10T11:41:46.164Z,4.08
2018-02-10T11:43:39.483Z,4.08
2018-02-10T11:44:39.435Z,4.04
2018-02-10T11:46:32.781Z,3.92
2018-02-10T11:47:32.745Z,3.80
2018-02-10T11:49:26.187Z,3.69
2018-02-10T11:50:26.049Z,3.80
2018-02-10T11:52:19.363Z,3.77
2018-02-10T11:53:19.336Z,3.76
2018-02-10T11:55:12.693Z,3.76
2018-02-10T11:56:12.649Z,3.77
2018-02-10T11:58:05.964Z,3.63
2018-02-10T11:59:05.946Z,3.76
2018-02-10T12:00:59.277Z,3.73
2018-02-10T12:01:59.235Z,3.76
2018-02-10T12:03:52.550Z,3.88
2018-02-10T12:04:52.526Z,3.78
2018-02-10T12:06:45.862Z,3.80
2018-02-10T12:07:45.825Z,3.78
2018-02-10T12:09:39.141Z,3.87
2018-02-10T12:10:39.110Z,3.99
2018-02-10T12:12:32.450Z,3.87
2018-02-10T12:13:32.402Z,3.84
2018-02-10T12:15:25.727Z,3.69
2018-02-10T12:16:25.686Z,3.59
2018-02-10T12:18:19.025Z,3.37
2018-02-10T12:19:18.976Z,3.62
2018-02-10T12:21:12.309Z,3.51
2018-02-10T12:22:12.279Z,3.59
2018-02-10T12:24:05.628Z,3.77
2018-02-10T12:25:05.569Z,3.68
2018-02-10T12:26:59.884Z,3.65
2018-02-10T12:27:59.857Z,3.66
2018-02-10T12:29:53.183Z,3.76
2018-02-10T12:30:53.143Z,3.91
2018-02-10T12:32:46.464Z,3.80
2018-02-10T12:33:46.440Z,3.77
2018-02-10T12:35:39.762Z,3.81
2018-02-10T12:36:39.730Z,3.78
2018-02-10T12:38:33.040Z,3.74
2018-02-10T12:39:33.014Z,3.96
2018-02-10T12:41:26.447Z,4.12
2018-02-10T12:42:26.303Z,3.99
2018-02-10T12:44:19.623Z,4.05
2018-02-10T12:45:19.596Z,4.04
2018-02-10T12:47:12.434Z,3.99
2018-02-10T12:48:12.400Z,3.94
2018-02-10T12:50:05.712Z,3.99
2018-02-10T12:51:05.714Z,3.99
2018-02-10T12:52:59.018Z,4.10
2018-02-10T12:53:58.972Z,3.99
2018-02-10T12:55:52.291Z,4.14
2018-02-10T12:56:52.269Z,4.10
2018-02-10T12:58:45.606Z,4.12
2018-02-10T12:59:45.551Z,4.16
2018-02-10T13:01:38.883Z,4.04
2018-02-10T13:02:38.855Z,3.99
2018-02-10T13:04:32.208Z,3.87
2018-02-10T13:05:32.170Z,4.05
2018-02-10T13:07:25.489Z,4.12
2018-02-10T13:08:25.464Z,4.13
2018-02-10T13:10:18.842Z,4.01
2018-02-10T13:11:18.751Z,3.91
2018-02-10T13:13:12.087Z,3.98
2018-02-10T13:14:12.060Z,3.99
2018-02-10T13:16:05.387Z,3.96
2018-02-10T13:17:05.351Z,4.04
2018-02-10T13:18:58.687Z,4.01
2018-02-10T13:19:58.647Z,3.94
2018-02-10T13:21:51.987Z,3.98
2018-02-10T13:22:51.943Z,4.01
2018-02-10T13:24:45.371Z,3.96
2018-02-10T13:25:45.249Z,3.88
2018-02-10T13:27:38.580Z,3.94
2018-02-10T13:28:38.571Z,3.91
2018-02-10T13:30:31.874Z,4.08
2018-02-10T13:31:31.842Z,4.04
2018-02-10T13:33:25.186Z,4.08
2018-02-10T13:34:25.140Z,4.05
2018-02-10T13:36:18.482Z,4.08
2018-02-10T13:37:18.462Z,4.02
2018-02-10T13:39:11.805Z,4.02
2018-02-10T13:40:11.761Z,4.05
2018-02-10T13:42:04.598Z,4.10
2018-02-10T13:43:04.600Z,4.10
2018-02-10T13:44:57.902Z,4.04
2018-02-10T13:45:57.894Z,4.08
2018-02-10T13:47:51.197Z,4.14
2018-02-10T13:48:51.153Z,4.05
2018-02-10T13:50:44.605Z,4.19
2018-02-10T13:51:44.454Z,4.20
2018-02-10T13:53:37.788Z,4.38
2018-02-10T13:54:37.787Z,4.26
2018-02-10T13:56:31.097Z,4.32
2018-02-10T13:57:31.054Z,4.49
2018-02-10T13:59:24.372Z,4.52
2018-02-10T14:00:24.345Z,4.58
2018-02-10T14:02:18.684Z,4.35
2018-02-10T14:03:18.684Z,4.19
2018-02-10T14:05:11.972Z,4.26
2018-02-10T14:06:11.934Z,4.42
2018-02-10T14:08:05.272Z,4.42
2018-02-10T14:09:05.230Z,4.34
2018-02-10T14:10:58.564Z,4.40
2018-02-10T14:11:58.531Z,4.38
2018-02-10T14:13:51.868Z,4.42
2018-02-10T14:14:51.825Z,4.48
2018-02-10T14:16:45.150Z,4.59
2018-02-10T14:17:45.120Z,4.67
2018-02-10T14:19:38.460Z,4.73
2018-02-10T14:20:38.418Z,4.71
2018-02-10T14:22:31.754Z,4.77
2018-02-10T14:23:31.720Z,4.87
2018-02-10T14:25:25.059Z,4.67
2018-02-10T14:26:25.015Z,4.71
2018-02-10T14:28:18.344Z,4.73
2018-02-10T14:29:18.315Z,4.77
2018-02-10T14:31:11.643Z,4.75
2018-02-10T14:32:11.617Z,4.74
2018-02-10T14:34:04.923Z,4.70
2018-02-10T14:35:04.907Z,4.56
2018-02-10T14:36:58.232Z,4.68
2018-02-10T14:37:58.189Z,4.66
2018-02-10T14:39:51.515Z,4.71
2018-02-10T14:40:51.492Z,4.70
2018-02-10T14:42:44.825Z,4.63
2018-02-10T14:43:44.774Z,4.62
2018-02-10T14:45:38.112Z,4.53
2018-02-10T14:46:38.069Z,4.41
2018-02-10T14:48:31.408Z,4.56
2018-02-10T14:49:31.368Z,4.58
2018-02-10T14:51:24.707Z,4.53
2018-02-10T14:52:24.668Z,4.70
2018-02-10T14:54:17.996Z,4.52
2018-02-10T14:55:17.955Z,4.44
2018-02-10T14:57:11.293Z,4.45
2018-02-10T14:58:11.254Z,4.49
2018-02-10T15:00:04.580Z,4.35
2018-02-10T15:01:04.540Z,4.42
2018-02-10T15:02:57.867Z,4.56
2018-02-10T15:03:57.836Z,4.63
2018-02-10T15:05:50.691Z,4.42
2018-02-10T15:06:50.630Z,4.45
2018-02-10T15:08:44.007Z,4.52
2018-02-10T15:09:43.936Z,4.60
2018-02-10T15:11:37.270Z,4.63
2018-02-10T15:12:37.232Z,4.68
2018-02-10T15:14:30.572Z,4.55
2018-02-10T15:15:30.539Z,4.48
2018-02-10T15:17:23.878Z,4.35
2018-02-10T15:18:23.832Z,4.55
2018-02-10T15:20:17.149Z,4.58
2018-02-10T15:21:17.123Z,4.59
2018-02-10T15:23:10.507Z,4.60
2018-02-10T15:24:10.425Z,4.66
2018-02-10T15:26:03.755Z,4.56
2018-02-10T15:27:03.711Z,4.53
2018-02-10T15:28:58.063Z,4.62
2018-02-10T15:29:58.015Z,4.70
2018-02-10T15:31:50.845Z,4.73
2018-02-10T15:32:50.818Z,4.60
2018-02-10T15:34:44.155Z,4.50
2018-02-10T15:35:44.106Z,4.55
2018-02-10T15:37:37.428Z,4.62
2018-02-10T15:38:37.411Z,4.56
2018-02-10T15:40:30.741Z,4.60
2018-02-10T15:41:30.695Z,4.55
2018-02-10T15:43:24.018Z,4.59
2018-02-10T15:44:23.990Z,4.62
2018-02-10T15:46:17.339Z,4.71
2018-02-10T15:47:17.297Z,4.62
2018-02-10T15:49:10.122Z,4.50
2018-02-10T15:50:10.089Z,4.40
2018-02-10T15:52:03.430Z,4.44
2018-02-10T15:53:03.386Z,4.49
2018-02-10T15:54:56.710Z,4.38
2018-02-10T15:55:56.706Z,4.58
2018-02-10T15:57:50.021Z,4.56
2018-02-10T15:58:49.980Z,4.56
2018-02-10T16:00:43.313Z,4.58
2018-02-10T16:01:43.280Z,4.52
2018-02-10T16:03:36.622Z,4.44
2018-02-10T16:04:36.581Z,4.48
2018-02-10T16:06:29.902Z,4.53
2018-02-10T16:07:29.870Z,4.60
2018-02-10T16:09:23.214Z,4.68
2018-02-10T16:10:23.167Z,4.71
2018-02-10T16:12:16.491Z,4.70
2018-02-10T16:13:16.462Z,4.58
2018-02-10T16:15:09.804Z,4.48
2018-02-10T16:16:09.773Z,4.49
2018-02-10T16:18:02.590Z,4.53
2018-02-10T16:19:02.557Z,4.55
2018-02-10T16:20:55.898Z,4.56
2018-02-10T16:21:55.854Z,4.58
2018-02-10T16:23:49.174Z,4.50
2018-02-10T16:24:49.147Z,4.59
2018-02-10T16:26:42.477Z,4.67
2018-02-10T16:27:42.438Z,4.56
2018-02-10T16:29:35.761Z,4.53
2018-02-10T16:30:35.738Z,4.63
2018-02-10T16:32:29.070Z,4.62
2018-02-10T16:33:29.031Z,4.50
2018-02-10T16:35:21.850Z,4.58
2018-02-10T16:36:21.839Z,4.38
2018-02-10T16:38:15.173Z,4.78
2018-02-10T16:39:15.131Z,4.89
2018-02-10T16:41:07.957Z,4.89
2018-02-10T16:42:07.933Z,4.89
2018-02-10T16:44:01.259Z,4.82
2018-02-10T16:45:01.221Z,4.67
2018-02-10T16:46:54.534Z,4.84
2018-02-10T16:47:54.512Z,4.87
2018-02-10T16:49:47.837Z,4.87
2018-02-10T16:50:47.800Z,4.93
2018-02-10T16:52:40.620Z,5.18
2018-02-10T16:53:40.594Z,5.17
2018-02-10T16:55:33.430Z,5.00
2018-02-10T16:56:33.396Z,5.07
2018-02-10T16:58:26.204Z,5.46
2018-02-10T16:59:26.179Z,5.29
2018-02-10T17:01:19.506Z,5.30
2018-02-10T17:02:19.471Z,5.47
2018-02-10T17:04:12.293Z,5.36
2018-02-10T17:05:12.275Z,5.41
2018-02-10T17:07:05.609Z,5.46
2018-02-10T17:08:05.569Z,5.39
2018-02-10T17:09:58.887Z,5.41
2018-02-10T17:10:58.857Z,5.07
2018-02-10T17:12:51.697Z,5.29
2018-02-10T17:13:51.657Z,5.29
2018-02-10T17:15:44.971Z,4.99
2018-02-10T17:16:44.946Z,5.00
2018-02-10T17:18:37.782Z,5.02
2018-02-10T17:19:37.742Z,4.94
2018-02-10T17:21:30.567Z,4.93
2018-02-10T17:22:30.554Z,4.97
2018-02-10T17:24:23.376Z,4.75
2018-02-10T17:25:23.338Z,4.84
2018-02-10T17:27:16.180Z,4.75
2018-02-10T17:28:16.153Z,4.80
2018-02-10T17:30:09.485Z,4.78
2018-02-10T17:31:09.443Z,4.90
2018-02-10T17:33:02.759Z,4.75
2018-02-10T17:34:02.736Z,4.62
2018-02-10T17:35:56.122Z,4.74
2018-02-10T17:36:56.022Z,4.68
2018-02-10T17:38:49.336Z,4.68
2018-02-10T17:39:49.310Z,4.73
2018-02-10T17:41:42.644Z,4.74
2018-02-10T17:42:42.603Z,4.68
2018-02-10T17:44:35.426Z,4.71
2018-02-10T17:45:35.400Z,4.74
2018-02-10T17:47:28.237Z,4.71
2018-02-10T17:48:28.196Z,4.68
2018-02-10T17:50:21.018Z,4.62
2018-02-10T17:51:20.994Z,4.75
2018-02-10T17:53:14.348Z,4.77
2018-02-10T17:54:14.286Z,4.77
2018-02-10T17:56:07.596Z,4.75
2018-02-10T17:57:07.576Z,4.84
2018-02-10T17:59:00.901Z,4.82
2018-02-10T18:00:00.861Z,4.71
2018-02-10T18:01:54.180Z,4.74
2018-02-10T18:02:54.152Z,4.71
2018-02-10T18:04:46.992Z,4.73
2018-02-10T18:05:46.956Z,4.78
2018-02-10T18:07:40.267Z,4.56
2018-02-10T18:08:40.242Z,4.63
2018-02-10T18:10:33.574Z,4.58
2018-02-10T18:11:33.534Z,4.68
2018-02-10T18:13:26.347Z,4.56
2018-02-10T18:14:26.330Z,4.73
2018-02-10T18:16:19.155Z,4.78
2018-02-10T18:17:19.120Z,4.71
2018-02-10T18:19:11.942Z,4.75
2018-02-10T18:20:11.911Z,4.68
2018-02-10T18:22:05.241Z,4.77
2018-02-10T18:23:05.203Z,4.89
2018-02-10T18:24:58.025Z,4.78
2018-02-10T18:25:57.999Z,4.93
2018-02-10T18:27:50.852Z,4.97
2018-02-10T18:28:50.796Z,5.18
2018-02-10T18:30:44.110Z,5.15
2018-02-10T18:31:44.094Z,5.04
2018-02-10T18:33:36.921Z,4.87
2018-02-10T18:34:36.878Z,4.77
2018-02-10T18:36:29.698Z,4.80
2018-02-10T18:37:29.677Z,4.75
2018-02-10T18:39:23.002Z,4.77
2018-02-10T18:40:22.962Z,4.75
2018-02-10T18:42:16.286Z,4.66
2018-02-10T18:43:16.256Z,4.77
2018-02-10T18:45:09.595Z,5.08
2018-02-10T18:46:09.557Z,4.87
2018-02-10T18:48:02.385Z,4.82
2018-02-10T18:49:02.358Z,4.92
2018-02-10T18:50:55.194Z,4.93
2018-02-10T18:51:55.153Z,4.74
2018-02-10T18:53:47.980Z,4.71
2018-02-10T18:54:47.957Z,4.80
2018-02-10T18:56:41.286Z,4.60
2018-02-10T18:57:41.246Z,4.74
2018-02-10T18:59:34.079Z,4.77
2018-02-10T19:00:34.051Z,4.62
2018-02-10T19:02:27.379Z,4.49
2018-02-10T19:03:27.338Z,4.70
2018-02-10T19:05:20.653Z,4.56
2018-02-10T19:06:20.628Z,4.45
2018-02-10T19:08:13.964Z,4.58
2018-02-10T19:09:13.926Z,4.63
2018-02-10T19:11:07.237Z,4.77
2018-02-10T19:12:07.213Z,4.80